Huvudsida
METAR-TAF:

METAR-TAF

Flygplatser :

Tromsø flygplats

Tromsø, Norge

latitud: 69-41N, longitud: 018-55E, höjd: 1 m

Aktuellt väderrapport

Denna rapport gjordes för 32 minuter sedan, klockan 15:20 UTC
Vind 11 kt från ost/nordost
Temperatur -6°C
Fuktighet 79%
Tryck 992 hPa
Sikt 10 km eller mer
Spridda moln på en höjd av 1300 ft
Brutna moln på en höjd av 2500 ft
lätta snöbyar

METAR: ENTC 191520Z 06011KT 9999 -SHSN SCT013 BKN025 M06/M09 Q0992 TEMPO 3000 -SN VV008 RMK WIND 2600FT 07019KT

Tid: 16:52 (15:52 UTC)

Väderprognos

Prognos gäller från 19 kl. 12 UTC till 20 kl. 12 UTC
Vind 12 kt från nordost
Sikt 10 km eller mer
Få moln på en höjd av 1000 ft
Brutna moln på en höjd av 3000 ft
Temporärt
från 19 kl. 12 UTC till 20 kl. 12 UTC
Sikt: 2000 m
på en höjd av 800 ft
snöbyar
Temporärt
från 19 kl. 18 UTC till 20 kl. 12 UTC
Vind 5 kt varierande vindriktning

TAF: ENTC 1912/2012 05012KT 9999 FEW010 BKN030 TEMPO 1912/2012 2000 SHSN VV008 TEMPO 1918/2012 VRB05KT

Aktuella väderrapporter och prognoser från 4000 flygplatser (METAR- och TAF-rapporter).

De tillgängliga stationerna syns som gula och röda prickar på kartan.

För musen över prickarna för att se namnen på stationerna.

Klicka sedan för att få väderrapporter och prognoser.

För att ändra kartan: Klicka på de gröna knapparna med ett svart kors på för att zooma in; den gröna knappen med ett streck på för att zooma ut; eller på de gröna pilarna för angränsande kartor.


METAR-TAF: